Glen Elder, Kansas
Current Conditions -  °F | °C
As of 9:55 AM on Monday 24 Nov 2014 (Local Time) from KCNK Reporting Station
Clear Clear  
Wind Chill: 21°   Ceiling: Unl
Heat Index: 34°   Visibility: 10mi
Dew Point: 21°   Wind: 29mph
Humidity: 59%   Direction: 320°NW
Pressure: 29.82"   Gusts: 38mph
Location:  39.5°N, 98.31°W
Report Text: KCNK 241555Z AUTO 32025G33KT 10SM CLR 01/M06 A2982 RMK AO2 PK WND 32033/1552 SLP104 T00111061
Loading
Personal Weather Stations






























Interactive Weather Map New forecast layout! Learn more

10-Day Weather Forecast

Advertisements
Track Severe Weather on mobile